sensor_id;sensor_type;location;lat;lon;timestamp;P1;durP1;ratioP1;P2;durP2;ratioP2
17987;SDS011;9119;50.932;5.342;2023-04-09T00:02:14;106.07;;;47.80;;
17987;SDS011;9119;50.932;5.342;2023-04-09T00:04:40;92.13;;;42.43;;
17987;SDS011;9119;50.932;5.342;2023-04-09T00:07:06;374.73;;;159.27;;
17987;SDS011;9119;50.932;5.342;2023-04-09T00:09:32;244.83;;;105.00;;
17987;SDS011;9119;50.932;5.342;2023-04-09T00:11:57;464.40;;;238.10;;
17987;SDS011;9119;50.932;5.342;2023-04-09T00:14:23;254.40;;;104.10;;
17987;SDS011;9119;50.932;5.342;2023-04-09T00:16:49;113.23;;;48.00;;
17987;SDS011;9119;50.932;5.342;2023-04-09T00:19:15;172.77;;;73.07;;
17987;SDS011;9119;50.932;5.342;2023-04-09T00:21:40;186.63;;;77.70;;
17987;SDS011;9119;50.932;5.342;2023-04-09T00:24:07;197.37;;;80.17;;
17987;SDS011;9119;50.932;5.342;2023-04-09T00:26:32;316.93;;;129.30;;
17987;SDS011;9119;50.932;5.342;2023-04-09T00:28:58;136.30;;;54.83;;
17987;SDS011;9119;50.932;5.342;2023-04-09T00:31:24;357.40;;;159.60;;
17987;SDS011;9119;50.932;5.342;2023-04-09T00:33:50;275.20;;;114.63;;
17987;SDS011;9119;50.932;5.342;2023-04-09T00:36:15;283.90;;;114.03;;
17987;SDS011;9119;50.932;5.342;2023-04-09T00:38:41;147.43;;;65.63;;
17987;SDS011;9119;50.932;5.342;2023-04-09T00:41:07;310.47;;;141.57;;
17987;SDS011;9119;50.932;5.342;2023-04-09T00:43:32;206.53;;;88.23;;
17987;SDS011;9119;50.932;5.342;2023-04-09T00:45:58;137.37;;;58.77;;
17987;SDS011;9119;50.932;5.342;2023-04-09T00:48:25;122.97;;;53.27;;
17987;SDS011;9119;50.932;5.342;2023-04-09T00:50:51;110.10;;;49.43;;
17987;SDS011;9119;50.932;5.342;2023-04-09T00:53:17;104.63;;;46.07;;
17987;SDS011;9119;50.932;5.342;2023-04-09T00:55:44;227.40;;;96.93;;
17987;SDS011;9119;50.932;5.342;2023-04-09T00:58:10;526.97;;;246.30;;
17987;SDS011;9119;50.932;5.342;2023-04-09T01:00:36;205.37;;;88.73;;
17987;SDS011;9119;50.932;5.342;2023-04-09T01:03:01;212.87;;;89.97;;
17987;SDS011;9119;50.932;5.342;2023-04-09T01:05:43;530.60;;;231.37;;
17987;SDS011;9119;50.932;5.342;2023-04-09T01:11:01;217.30;;;95.10;;
17987;SDS011;9119;50.932;5.342;2023-04-09T01:13:46;329.37;;;148.13;;
17987;SDS011;9119;50.932;5.342;2023-04-09T01:16:19;128.70;;;55.17;;
17987;SDS011;9119;50.932;5.342;2023-04-09T01:18:49;163.87;;;68.87;;
17987;SDS011;9119;50.932;5.342;2023-04-09T01:21:24;178.87;;;74.50;;
17987;SDS011;9119;50.932;5.342;2023-04-09T01:26:56;254.10;;;105.10;;
17987;SDS011;9119;50.932;5.342;2023-04-09T01:29:33;108.33;;;43.77;;
17987;SDS011;9119;50.932;5.342;2023-04-09T01:32:03;165.20;;;72.47;;
17987;SDS011;9119;50.932;5.342;2023-04-09T01:34:31;274.83;;;117.93;;
17987;SDS011;9119;50.932;5.342;2023-04-09T01:36:58;103.97;;;43.40;;
17987;SDS011;9119;50.932;5.342;2023-04-09T01:39:26;124.37;;;52.80;;
17987;SDS011;9119;50.932;5.342;2023-04-09T01:41:53;319.83;;;132.93;;
17987;SDS011;9119;50.932;5.342;2023-04-09T01:44:20;120.10;;;53.23;;
17987;SDS011;9119;50.932;5.342;2023-04-09T01:46:47;95.97;;;43.10;;
17987;SDS011;9119;50.932;5.342;2023-04-09T01:49:14;172.03;;;70.33;;
17987;SDS011;9119;50.932;5.342;2023-04-09T01:51:41;128.80;;;52.37;;
17987;SDS011;9119;50.932;5.342;2023-04-09T01:54:07;93.93;;;41.47;;
17987;SDS011;9119;50.932;5.342;2023-04-09T01:56:39;122.20;;;51.77;;
17987;SDS011;9119;50.932;5.342;2023-04-09T01:59:09;81.87;;;36.53;;
17987;SDS011;9119;50.932;5.342;2023-04-09T02:01:37;87.87;;;38.07;;
17987;SDS011;9119;50.932;5.342;2023-04-09T02:04:23;87.37;;;38.07;;
17987;SDS011;9119;50.932;5.342;2023-04-09T02:06:58;106.00;;;45.07;;
17987;SDS011;9119;50.932;5.342;2023-04-09T02:09:50;77.33;;;34.33;;
17987;SDS011;9119;50.932;5.342;2023-04-09T02:12:18;85.03;;;35.90;;
17987;SDS011;9119;50.932;5.342;2023-04-09T02:14:45;94.27;;;40.80;;
17987;SDS011;9119;50.932;5.342;2023-04-09T02:17:15;88.87;;;37.73;;
17987;SDS011;9119;50.932;5.342;2023-04-09T02:19:41;90.37;;;38.70;;
17987;SDS011;9119;50.932;5.342;2023-04-09T02:22:09;90.33;;;39.70;;
17987;SDS011;9119;50.932;5.342;2023-04-09T02:24:36;93.67;;;40.23;;
17987;SDS011;9119;50.932;5.342;2023-04-09T02:27:02;91.23;;;39.20;;
17987;SDS011;9119;50.932;5.342;2023-04-09T02:29:29;90.83;;;37.77;;
17987;SDS011;9119;50.932;5.342;2023-04-09T02:31:55;96.97;;;40.23;;
17987;SDS011;9119;50.932;5.342;2023-04-09T02:34:20;96.30;;;38.70;;
17987;SDS011;9119;50.932;5.342;2023-04-09T02:36:46;85.07;;;36.57;;
17987;SDS011;9119;50.932;5.342;2023-04-09T02:39:12;90.20;;;38.47;;
17987;SDS011;9119;50.932;5.342;2023-04-09T02:41:38;82.90;;;37.20;;
17987;SDS011;9119;50.932;5.342;2023-04-09T02:44:03;96.10;;;39.57;;
17987;SDS011;9119;50.932;5.342;2023-04-09T02:46:29;85.80;;;36.97;;
17987;SDS011;9119;50.932;5.342;2023-04-09T02:48:55;92.80;;;36.50;;
17987;SDS011;9119;50.932;5.342;2023-04-09T02:51:21;83.93;;;36.60;;
17987;SDS011;9119;50.932;5.342;2023-04-09T02:53:46;88.40;;;36.80;;
17987;SDS011;9119;50.932;5.342;2023-04-09T02:56:12;84.57;;;35.50;;
17987;SDS011;9119;50.932;5.342;2023-04-09T02:58:38;86.53;;;37.67;;
17987;SDS011;9119;50.932;5.342;2023-04-09T03:01:03;91.87;;;38.73;;
17987;SDS011;9119;50.932;5.342;2023-04-09T03:03:29;85.13;;;35.90;;
17987;SDS011;9119;50.932;5.342;2023-04-09T03:05:55;89.00;;;36.13;;
17987;SDS011;9119;50.932;5.342;2023-04-09T03:08:21;89.20;;;36.40;;
17987;SDS011;9119;50.932;5.342;2023-04-09T03:10:47;89.30;;;35.80;;
17987;SDS011;9119;50.932;5.342;2023-04-09T03:13:12;88.87;;;37.37;;
17987;SDS011;9119;50.932;5.342;2023-04-09T03:15:38;86.80;;;36.90;;
17987;SDS011;9119;50.932;5.342;2023-04-09T03:18:04;103.07;;;37.77;;
17987;SDS011;9119;50.932;5.342;2023-04-09T03:20:29;86.97;;;35.27;;
17987;SDS011;9119;50.932;5.342;2023-04-09T03:22:55;89.30;;;36.97;;
17987;SDS011;9119;50.932;5.342;2023-04-09T03:25:21;87.13;;;35.93;;
17987;SDS011;9119;50.932;5.342;2023-04-09T03:27:47;83.77;;;35.00;;
17987;SDS011;9119;50.932;5.342;2023-04-09T03:30:12;89.13;;;36.70;;
17987;SDS011;9119;50.932;5.342;2023-04-09T03:32:38;86.10;;;37.07;;
17987;SDS011;9119;50.932;5.342;2023-04-09T03:35:04;82.27;;;36.33;;
17987;SDS011;9119;50.932;5.342;2023-04-09T03:37:30;83.47;;;34.53;;
17987;SDS011;9119;50.932;5.342;2023-04-09T03:39:55;81.63;;;33.73;;
17987;SDS011;9119;50.932;5.342;2023-04-09T03:42:21;85.50;;;35.57;;
17987;SDS011;9119;50.932;5.342;2023-04-09T03:44:47;87.17;;;35.17;;
17987;SDS011;9119;50.932;5.342;2023-04-09T03:47:12;82.00;;;35.80;;
17987;SDS011;9119;50.932;5.342;2023-04-09T03:49:38;81.00;;;35.70;;
17987;SDS011;9119;50.932;5.342;2023-04-09T03:52:05;79.93;;;33.10;;
17987;SDS011;9119;50.932;5.342;2023-04-09T03:54:31;83.30;;;34.00;;
17987;SDS011;9119;50.932;5.342;2023-04-09T03:56:56;86.73;;;35.43;;
17987;SDS011;9119;50.932;5.342;2023-04-09T03:59:22;88.37;;;35.17;;
17987;SDS011;9119;50.932;5.342;2023-04-09T04:01:48;90.43;;;36.77;;
17987;SDS011;9119;50.932;5.342;2023-04-09T04:04:14;82.57;;;34.20;;
17987;SDS011;9119;50.932;5.342;2023-04-09T04:06:40;85.20;;;35.10;;
17987;SDS011;9119;50.932;5.342;2023-04-09T04:09:06;77.47;;;35.97;;
17987;SDS011;9119;50.932;5.342;2023-04-09T04:11:31;83.80;;;36.60;;
17987;SDS011;9119;50.932;5.342;2023-04-09T04:13:57;88.40;;;35.57;;
17987;SDS011;9119;50.932;5.342;2023-04-09T04:16:23;90.03;;;37.47;;
17987;SDS011;9119;50.932;5.342;2023-04-09T04:18:49;84.80;;;35.53;;
17987;SDS011;9119;50.932;5.342;2023-04-09T04:21:15;90.57;;;36.43;;
17987;SDS011;9119;50.932;5.342;2023-04-09T04:23:41;87.93;;;36.73;;
17987;SDS011;9119;50.932;5.342;2023-04-09T04:26:07;94.87;;;37.07;;
17987;SDS011;9119;50.932;5.342;2023-04-09T04:28:36;92.80;;;39.07;;
17987;SDS011;9119;50.932;5.342;2023-04-09T04:31:06;96.23;;;37.53;;
17987;SDS011;9119;50.932;5.342;2023-04-09T04:33:36;88.30;;;37.73;;
17987;SDS011;9119;50.932;5.342;2023-04-09T04:36:06;94.57;;;38.03;;
17987;SDS011;9119;50.932;5.342;2023-04-09T04:38:33;98.43;;;39.43;;
17987;SDS011;9119;50.932;5.342;2023-04-09T04:41:00;90.13;;;38.17;;
17987;SDS011;9119;50.932;5.342;2023-04-09T04:43:26;102.70;;;37.70;;
17987;SDS011;9119;50.932;5.342;2023-04-09T04:45:52;89.07;;;37.00;;
17987;SDS011;9119;50.932;5.342;2023-04-09T04:48:18;98.17;;;38.60;;
17987;SDS011;9119;50.932;5.342;2023-04-09T04:50:43;99.10;;;37.60;;
17987;SDS011;9119;50.932;5.342;2023-04-09T04:53:09;100.50;;;38.13;;
17987;SDS011;9119;50.932;5.342;2023-04-09T04:55:35;92.67;;;37.03;;
17987;SDS011;9119;50.932;5.342;2023-04-09T04:58:03;93.53;;;38.60;;
17987;SDS011;9119;50.932;5.342;2023-04-09T05:00:29;90.47;;;36.63;;
17987;SDS011;9119;50.932;5.342;2023-04-09T05:02:55;98.27;;;38.30;;
17987;SDS011;9119;50.932;5.342;2023-04-09T05:05:21;92.50;;;37.17;;
17987;SDS011;9119;50.932;5.342;2023-04-09T05:07:47;87.80;;;37.20;;
17987;SDS011;9119;50.932;5.342;2023-04-09T05:10:12;93.10;;;38.03;;
17987;SDS011;9119;50.932;5.342;2023-04-09T05:12:38;88.50;;;36.87;;
17987;SDS011;9119;50.932;5.342;2023-04-09T05:15:04;94.27;;;38.40;;
17987;SDS011;9119;50.932;5.342;2023-04-09T05:17:31;92.33;;;37.43;;
17987;SDS011;9119;50.932;5.342;2023-04-09T05:19:57;99.93;;;35.53;;
17987;SDS011;9119;50.932;5.342;2023-04-09T05:22:22;92.13;;;37.03;;
17987;SDS011;9119;50.932;5.342;2023-04-09T05:24:48;100.57;;;37.50;;
17987;SDS011;9119;50.932;5.342;2023-04-09T05:27:14;92.60;;;37.00;;
17987;SDS011;9119;50.932;5.342;2023-04-09T05:29:39;89.47;;;35.53;;
17987;SDS011;9119;50.932;5.342;2023-04-09T05:32:05;88.47;;;36.33;;
17987;SDS011;9119;50.932;5.342;2023-04-09T05:34:33;91.77;;;35.23;;
17987;SDS011;9119;50.932;5.342;2023-04-09T05:36:59;87.37;;;34.87;;
17987;SDS011;9119;50.932;5.342;2023-04-09T05:39:25;83.07;;;33.77;;
17987;SDS011;9119;50.932;5.342;2023-04-09T05:41:50;85.10;;;34.93;;
17987;SDS011;9119;50.932;5.342;2023-04-09T05:44:16;81.83;;;34.57;;
17987;SDS011;9119;50.932;5.342;2023-04-09T05:46:42;81.63;;;31.63;;
17987;SDS011;9119;50.932;5.342;2023-04-09T05:49:08;83.13;;;33.10;;
17987;SDS011;9119;50.932;5.342;2023-04-09T05:51:34;80.47;;;33.83;;
17987;SDS011;9119;50.932;5.342;2023-04-09T05:53:59;87.17;;;34.30;;
17987;SDS011;9119;50.932;5.342;2023-04-09T05:56:25;91.83;;;35.87;;
17987;SDS011;9119;50.932;5.342;2023-04-09T05:58:52;86.47;;;35.60;;
17987;SDS011;9119;50.932;5.342;2023-04-09T06:01:18;88.17;;;37.00;;
17987;SDS011;9119;50.932;5.342;2023-04-09T06:03:44;108.33;;;39.67;;
17987;SDS011;9119;50.932;5.342;2023-04-09T06:06:09;98.40;;;38.20;;
17987;SDS011;9119;50.932;5.342;2023-04-09T06:08:37;103.67;;;40.43;;
17987;SDS011;9119;50.932;5.342;2023-04-09T06:11:03;95.60;;;38.93;;
17987;SDS011;9119;50.932;5.342;2023-04-09T06:13:32;93.53;;;37.30;;
17987;SDS011;9119;50.932;5.342;2023-04-09T06:15:58;86.83;;;36.73;;
17987;SDS011;9119;50.932;5.342;2023-04-09T06:18:23;94.73;;;37.60;;
17987;SDS011;9119;50.932;5.342;2023-04-09T06:20:49;92.23;;;37.50;;
17987;SDS011;9119;50.932;5.342;2023-04-09T06:23:24;92.27;;;39.13;;
17987;SDS011;9119;50.932;5.342;2023-04-09T06:25:50;90.97;;;37.30;;
17987;SDS011;9119;50.932;5.342;2023-04-09T06:28:16;85.93;;;37.13;;
17987;SDS011;9119;50.932;5.342;2023-04-09T06:30:41;100.90;;;40.00;;
17987;SDS011;9119;50.932;5.342;2023-04-09T06:33:07;88.67;;;37.97;;
17987;SDS011;9119;50.932;5.342;2023-04-09T06:35:33;87.47;;;37.50;;
17987;SDS011;9119;50.932;5.342;2023-04-09T06:37:58;85.63;;;35.97;;
17987;SDS011;9119;50.932;5.342;2023-04-09T06:40:24;89.17;;;38.67;;
17987;SDS011;9119;50.932;5.342;2023-04-09T06:42:50;86.73;;;36.60;;
17987;SDS011;9119;50.932;5.342;2023-04-09T06:45:16;77.77;;;35.17;;
17987;SDS011;9119;50.932;5.342;2023-04-09T06:47:42;85.93;;;36.53;;
17987;SDS011;9119;50.932;5.342;2023-04-09T06:50:07;84.97;;;37.07;;
17987;SDS011;9119;50.932;5.342;2023-04-09T06:52:33;84.93;;;35.00;;
17987;SDS011;9119;50.932;5.342;2023-04-09T06:54:59;87.87;;;37.77;;
17987;SDS011;9119;50.932;5.342;2023-04-09T06:57:25;79.33;;;37.37;;
17987;SDS011;9119;50.932;5.342;2023-04-09T06:59:51;82.27;;;36.27;;
17987;SDS011;9119;50.932;5.342;2023-04-09T07:02:16;83.13;;;36.93;;
17987;SDS011;9119;50.932;5.342;2023-04-09T07:04:42;87.03;;;38.60;;
17987;SDS011;9119;50.932;5.342;2023-04-09T07:07:08;95.73;;;40.70;;
17987;SDS011;9119;50.932;5.342;2023-04-09T07:09:33;86.03;;;38.60;;
17987;SDS011;9119;50.932;5.342;2023-04-09T07:11:59;94.13;;;41.23;;
17987;SDS011;9119;50.932;5.342;2023-04-09T07:14:25;94.83;;;40.77;;
17987;SDS011;9119;50.932;5.342;2023-04-09T07:16:50;84.63;;;40.13;;
17987;SDS011;9119;50.932;5.342;2023-04-09T07:19:16;91.30;;;39.07;;
17987;SDS011;9119;50.932;5.342;2023-04-09T07:21:41;85.87;;;37.00;;
17987;SDS011;9119;50.932;5.342;2023-04-09T07:24:07;77.97;;;36.23;;
17987;SDS011;9119;50.932;5.342;2023-04-09T07:26:33;80.67;;;37.17;;
17987;SDS011;9119;50.932;5.342;2023-04-09T07:28:58;84.50;;;38.00;;
17987;SDS011;9119;50.932;5.342;2023-04-09T07:31:24;82.30;;;37.87;;
17987;SDS011;9119;50.932;5.342;2023-04-09T07:33:51;84.53;;;37.20;;
17987;SDS011;9119;50.932;5.342;2023-04-09T07:36:16;83.37;;;37.40;;
17987;SDS011;9119;50.932;5.342;2023-04-09T07:38:42;91.33;;;40.00;;
17987;SDS011;9119;50.932;5.342;2023-04-09T07:41:11;94.67;;;39.60;;
17987;SDS011;9119;50.932;5.342;2023-04-09T07:43:37;91.17;;;38.23;;
17987;SDS011;9119;50.932;5.342;2023-04-09T07:46:02;92.27;;;41.23;;
17987;SDS011;9119;50.932;5.342;2023-04-09T07:48:28;90.60;;;39.47;;
17987;SDS011;9119;50.932;5.342;2023-04-09T07:50:54;87.83;;;39.17;;
17987;SDS011;9119;50.932;5.342;2023-04-09T07:53:19;80.40;;;37.87;;
17987;SDS011;9119;50.932;5.342;2023-04-09T07:55:45;77.87;;;36.90;;
17987;SDS011;9119;50.932;5.342;2023-04-09T07:58:11;74.63;;;37.77;;
17987;SDS011;9119;50.932;5.342;2023-04-09T08:00:36;79.33;;;35.97;;
17987;SDS011;9119;50.932;5.342;2023-04-09T08:03:02;77.40;;;36.40;;
17987;SDS011;9119;50.932;5.342;2023-04-09T08:05:28;84.53;;;36.37;;
17987;SDS011;9119;50.932;5.342;2023-04-09T08:07:54;82.50;;;36.20;;
17987;SDS011;9119;50.932;5.342;2023-04-09T08:10:20;74.73;;;35.90;;
17987;SDS011;9119;50.932;5.342;2023-04-09T08:12:46;77.93;;;35.30;;
17987;SDS011;9119;50.932;5.342;2023-04-09T08:15:13;75.07;;;34.20;;
17987;SDS011;9119;50.932;5.342;2023-04-09T08:17:38;76.80;;;34.97;;
17987;SDS011;9119;50.932;5.342;2023-04-09T08:20:04;79.20;;;36.53;;
17987;SDS011;9119;50.932;5.342;2023-04-09T08:22:31;71.10;;;32.80;;
17987;SDS011;9119;50.932;5.342;2023-04-09T08:24:57;70.30;;;29.80;;
17987;SDS011;9119;50.932;5.342;2023-04-09T08:27:23;62.30;;;31.33;;
17987;SDS011;9119;50.932;5.342;2023-04-09T08:29:48;62.70;;;29.53;;
17987;SDS011;9119;50.932;5.342;2023-04-09T08:32:15;63.77;;;30.77;;
17987;SDS011;9119;50.932;5.342;2023-04-09T08:34:40;63.53;;;30.00;;
17987;SDS011;9119;50.932;5.342;2023-04-09T08:37:06;60.17;;;28.70;;
17987;SDS011;9119;50.932;5.342;2023-04-09T08:39:32;64.13;;;28.67;;
17987;SDS011;9119;50.932;5.342;2023-04-09T08:41:58;59.07;;;28.23;;
17987;SDS011;9119;50.932;5.342;2023-04-09T08:44:27;61.27;;;28.87;;
17987;SDS011;9119;50.932;5.342;2023-04-09T08:46:53;53.27;;;27.53;;
17987;SDS011;9119;50.932;5.342;2023-04-09T08:49:19;53.03;;;26.80;;
17987;SDS011;9119;50.932;5.342;2023-04-09T08:51:46;58.53;;;26.83;;
17987;SDS011;9119;50.932;5.342;2023-04-09T08:54:13;54.67;;;26.63;;
17987;SDS011;9119;50.932;5.342;2023-04-09T08:56:41;49.70;;;25.53;;
17987;SDS011;9119;50.932;5.342;2023-04-09T08:59:08;49.07;;;24.73;;
17987;SDS011;9119;50.932;5.342;2023-04-09T09:01:34;49.87;;;26.20;;
17987;SDS011;9119;50.932;5.342;2023-04-09T09:04:04;52.07;;;24.47;;
17987;SDS011;9119;50.932;5.342;2023-04-09T09:06:32;48.90;;;23.87;;
17987;SDS011;9119;50.932;5.342;2023-04-09T09:11:30;35.73;;;18.73;;
17987;SDS011;9119;50.932;5.342;2023-04-09T09:14:03;37.90;;;19.47;;
17987;SDS011;9119;50.932;5.342;2023-04-09T09:16:33;31.73;;;16.50;;
17987;SDS011;9119;50.932;5.342;2023-04-09T09:19:03;30.43;;;16.07;;
17987;SDS011;9119;50.932;5.342;2023-04-09T09:21:30;28.13;;;15.43;;
17987;SDS011;9119;50.932;5.342;2023-04-09T09:23:56;30.23;;;16.23;;
17987;SDS011;9119;50.932;5.342;2023-04-09T09:26:23;35.03;;;17.27;;
17987;SDS011;9119;50.932;5.342;2023-04-09T09:28:53;28.93;;;16.93;;
17987;SDS011;9119;50.932;5.342;2023-04-09T09:31:21;26.43;;;16.30;;
17987;SDS011;9119;50.932;5.342;2023-04-09T09:33:47;24.83;;;14.40;;
17987;SDS011;9119;50.932;5.342;2023-04-09T09:36:29;25.70;;;15.17;;
17987;SDS011;9119;50.932;5.342;2023-04-09T09:38:57;28.37;;;14.60;;
17987;SDS011;9119;50.932;5.342;2023-04-09T09:41:27;25.40;;;14.37;;
17987;SDS011;9119;50.932;5.342;2023-04-09T09:43:53;24.33;;;14.67;;
17987;SDS011;9119;50.932;5.342;2023-04-09T09:46:19;21.53;;;14.17;;
17987;SDS011;9119;50.932;5.342;2023-04-09T09:48:45;22.37;;;14.13;;
17987;SDS011;9119;50.932;5.342;2023-04-09T09:51:12;19.70;;;12.47;;
17987;SDS011;9119;50.932;5.342;2023-04-09T09:53:41;19.40;;;12.03;;
17987;SDS011;9119;50.932;5.342;2023-04-09T09:56:15;20.40;;;12.27;;
17987;SDS011;9119;50.932;5.342;2023-04-09T10:01:31;20.50;;;11.77;;
17987;SDS011;9119;50.932;5.342;2023-04-09T10:03:58;21.67;;;12.70;;
17987;SDS011;9119;50.932;5.342;2023-04-09T10:06:25;28.03;;;13.03;;
17987;SDS011;9119;50.932;5.342;2023-04-09T10:08:51;16.13;;;10.33;;
17987;SDS011;9119;50.932;5.342;2023-04-09T10:11:21;23.43;;;14.10;;
17987;SDS011;9119;50.932;5.342;2023-04-09T10:13:49;21.17;;;13.27;;
17987;SDS011;9119;50.932;5.342;2023-04-09T10:16:16;25.23;;;14.30;;
17987;SDS011;9119;50.932;5.342;2023-04-09T10:18:42;22.00;;;12.67;;
17987;SDS011;9119;50.932;5.342;2023-04-09T10:21:33;14.53;;;9.10;;
17987;SDS011;9119;50.932;5.342;2023-04-09T10:24:03;16.17;;;9.83;;
17987;SDS011;9119;50.932;5.342;2023-04-09T10:26:32;15.17;;;9.33;;
17987;SDS011;9119;50.932;5.342;2023-04-09T10:29:08;19.73;;;10.33;;
17987;SDS011;9119;50.932;5.342;2023-04-09T10:34:13;17.77;;;9.97;;
17987;SDS011;9119;50.932;5.342;2023-04-09T10:36:41;20.20;;;10.37;;
17987;SDS011;9119;50.932;5.342;2023-04-09T10:39:12;14.80;;;8.53;;
17987;SDS011;9119;50.932;5.342;2023-04-09T10:41:37;17.40;;;8.83;;
17987;SDS011;9119;50.932;5.342;2023-04-09T10:44:05;15.97;;;8.57;;
17987;SDS011;9119;50.932;5.342;2023-04-09T10:46:35;12.80;;;7.87;;
17987;SDS011;9119;50.932;5.342;2023-04-09T10:49:10;12.07;;;7.63;;
17987;SDS011;9119;50.932;5.342;2023-04-09T10:51:39;11.03;;;6.93;;
17987;SDS011;9119;50.932;5.342;2023-04-09T10:54:25;10.73;;;7.07;;
17987;SDS011;9119;50.932;5.342;2023-04-09T10:59:51;14.87;;;8.87;;
17987;SDS011;9119;50.932;5.342;2023-04-09T11:07:52;16.13;;;9.33;;
17987;SDS011;9119;50.932;5.342;2023-04-09T11:10:22;13.13;;;7.83;;
17987;SDS011;9119;50.932;5.342;2023-04-09T11:12:48;12.83;;;8.37;;
17987;SDS011;9119;50.932;5.342;2023-04-09T11:15:14;11.67;;;7.67;;
17987;SDS011;9119;50.932;5.342;2023-04-09T11:17:41;15.10;;;8.37;;
17987;SDS011;9119;50.932;5.342;2023-04-09T11:20:08;14.33;;;7.23;;
17987;SDS011;9119;50.932;5.342;2023-04-09T11:22:34;17.97;;;8.73;;
17987;SDS011;9119;50.932;5.342;2023-04-09T11:25:00;11.07;;;7.53;;
17987;SDS011;9119;50.932;5.342;2023-04-09T11:27:27;11.70;;;7.50;;
17987;SDS011;9119;50.932;5.342;2023-04-09T11:29:55;11.17;;;7.33;;
17987;SDS011;9119;50.932;5.342;2023-04-09T11:32:21;10.73;;;6.67;;
17987;SDS011;9119;50.932;5.342;2023-04-09T11:34:46;11.93;;;7.47;;
17987;SDS011;9119;50.932;5.342;2023-04-09T11:37:15;14.83;;;8.30;;
17987;SDS011;9119;50.932;5.342;2023-04-09T11:39:44;13.93;;;7.97;;
17987;SDS011;9119;50.932;5.342;2023-04-09T11:42:14;12.07;;;7.87;;
17987;SDS011;9119;50.932;5.342;2023-04-09T11:44:43;11.70;;;7.37;;
17987;SDS011;9119;50.932;5.342;2023-04-09T11:47:10;14.20;;;8.10;;
17987;SDS011;9119;50.932;5.342;2023-04-09T11:49:37;11.60;;;7.70;;
17987;SDS011;9119;50.932;5.342;2023-04-09T11:52:03;11.53;;;7.50;;
17987;SDS011;9119;50.932;5.342;2023-04-09T11:54:33;12.20;;;7.43;;
17987;SDS011;9119;50.932;5.342;2023-04-09T11:56:59;12.23;;;7.50;;
17987;SDS011;9119;50.932;5.342;2023-04-09T11:59:25;15.83;;;7.77;;
17987;SDS011;9119;50.932;5.342;2023-04-09T12:01:51;11.57;;;6.63;;
17987;SDS011;9119;50.932;5.342;2023-04-09T12:04:20;14.73;;;7.77;;
17987;SDS011;9119;50.932;5.342;2023-04-09T12:06:46;12.77;;;7.93;;
17987;SDS011;9119;50.932;5.342;2023-04-09T12:09:12;12.50;;;7.80;;
17987;SDS011;9119;50.932;5.342;2023-04-09T12:11:38;13.77;;;7.07;;
17987;SDS011;9119;50.932;5.342;2023-04-09T12:14:11;13.07;;;7.93;;
17987;SDS011;9119;50.932;5.342;2023-04-09T12:16:38;13.53;;;8.13;;
17987;SDS011;9119;50.932;5.342;2023-04-09T12:19:10;14.83;;;8.20;;
17987;SDS011;9119;50.932;5.342;2023-04-09T12:21:49;13.57;;;7.97;;
17987;SDS011;9119;50.932;5.342;2023-04-09T12:24:21;12.70;;;7.70;;
17987;SDS011;9119;50.932;5.342;2023-04-09T12:26:52;14.60;;;8.47;;
17987;SDS011;9119;50.932;5.342;2023-04-09T12:29:18;12.73;;;8.00;;
17987;SDS011;9119;50.932;5.342;2023-04-09T12:31:45;13.37;;;7.40;;
17987;SDS011;9119;50.932;5.342;2023-04-09T12:34:11;15.60;;;7.67;;
17987;SDS011;9119;50.932;5.342;2023-04-09T12:36:40;15.57;;;8.53;;
17987;SDS011;9119;50.932;5.342;2023-04-09T12:39:06;14.40;;;8.70;;
17987;SDS011;9119;50.932;5.342;2023-04-09T12:41:33;11.60;;;6.87;;
17987;SDS011;9119;50.932;5.342;2023-04-09T12:43:58;9.87;;;5.97;;
17987;SDS011;9119;50.932;5.342;2023-04-09T12:46:24;10.40;;;6.23;;
17987;SDS011;9119;50.932;5.342;2023-04-09T12:48:51;11.43;;;6.90;;
17987;SDS011;9119;50.932;5.342;2023-04-09T12:51:17;9.57;;;6.47;;
17987;SDS011;9119;50.932;5.342;2023-04-09T12:53:42;10.17;;;6.27;;
17987;SDS011;9119;50.932;5.342;2023-04-09T12:56:08;11.00;;;6.00;;
17987;SDS011;9119;50.932;5.342;2023-04-09T12:58:34;11.73;;;6.90;;
17987;SDS011;9119;50.932;5.342;2023-04-09T13:01:01;11.83;;;7.50;;
17987;SDS011;9119;50.932;5.342;2023-04-09T13:03:28;13.17;;;7.23;;
17987;SDS011;9119;50.932;5.342;2023-04-09T13:05:54;12.33;;;6.77;;
17987;SDS011;9119;50.932;5.342;2023-04-09T13:08:20;11.47;;;7.20;;
17987;SDS011;9119;50.932;5.342;2023-04-09T13:10:45;12.97;;;7.80;;
17987;SDS011;9119;50.932;5.342;2023-04-09T13:13:11;12.87;;;7.33;;
17987;SDS011;9119;50.932;5.342;2023-04-09T13:15:40;13.77;;;7.63;;
17987;SDS011;9119;50.932;5.342;2023-04-09T13:18:11;12.10;;;7.27;;
17987;SDS011;9119;50.932;5.342;2023-04-09T13:20:37;11.30;;;6.90;;
17987;SDS011;9119;50.932;5.342;2023-04-09T13:23:03;17.30;;;8.13;;
17987;SDS011;9119;50.932;5.342;2023-04-09T13:25:29;12.47;;;6.67;;
17987;SDS011;9119;50.932;5.342;2023-04-09T13:27:55;13.60;;;7.77;;
17987;SDS011;9119;50.932;5.342;2023-04-09T13:30:21;14.03;;;8.10;;
17987;SDS011;9119;50.932;5.342;2023-04-09T13:32:47;10.67;;;6.73;;
17987;SDS011;9119;50.932;5.342;2023-04-09T13:35:13;14.03;;;7.30;;
17987;SDS011;9119;50.932;5.342;2023-04-09T13:37:39;11.80;;;7.30;;
17987;SDS011;9119;50.932;5.342;2023-04-09T13:40:05;10.73;;;6.57;;
17987;SDS011;9119;50.932;5.342;2023-04-09T13:42:33;12.93;;;7.10;;
17987;SDS011;9119;50.932;5.342;2023-04-09T13:44:59;13.87;;;7.37;;
17987;SDS011;9119;50.932;5.342;2023-04-09T13:47:24;11.70;;;6.70;;
17987;SDS011;9119;50.932;5.342;2023-04-09T13:49:51;11.33;;;6.57;;
17987;SDS011;9119;50.932;5.342;2023-04-09T13:52:17;13.23;;;6.43;;
17987;SDS011;9119;50.932;5.342;2023-04-09T13:54:43;10.70;;;6.13;;
17987;SDS011;9119;50.932;5.342;2023-04-09T13:57:08;10.60;;;6.50;;
17987;SDS011;9119;50.932;5.342;2023-04-09T13:59:34;12.93;;;6.70;;
17987;SDS011;9119;50.932;5.342;2023-04-09T14:02:02;12.73;;;7.03;;
17987;SDS011;9119;50.932;5.342;2023-04-09T14:04:28;11.90;;;7.07;;
17987;SDS011;9119;50.932;5.342;2023-04-09T14:06:54;10.20;;;6.47;;
17987;SDS011;9119;50.932;5.342;2023-04-09T14:09:21;13.63;;;6.43;;
17987;SDS011;9119;50.932;5.342;2023-04-09T14:11:46;13.70;;;7.13;;
17987;SDS011;9119;50.932;5.342;2023-04-09T14:14:13;11.40;;;6.83;;
17987;SDS011;9119;50.932;5.342;2023-04-09T14:16:39;12.03;;;7.23;;
17987;SDS011;9119;50.932;5.342;2023-04-09T14:19:05;12.17;;;7.17;;
17987;SDS011;9119;50.932;5.342;2023-04-09T14:21:31;10.53;;;6.57;;
17987;SDS011;9119;50.932;5.342;2023-04-09T14:23:57;10.13;;;6.27;;
17987;SDS011;9119;50.932;5.342;2023-04-09T14:26:23;11.80;;;6.63;;
17987;SDS011;9119;50.932;5.342;2023-04-09T14:28:50;12.47;;;6.63;;
17987;SDS011;9119;50.932;5.342;2023-04-09T14:31:16;13.20;;;6.83;;
17987;SDS011;9119;50.932;5.342;2023-04-09T14:33:45;12.43;;;7.17;;
17987;SDS011;9119;50.932;5.342;2023-04-09T14:36:11;11.30;;;6.97;;
17987;SDS011;9119;50.932;5.342;2023-04-09T14:38:37;11.43;;;6.10;;
17987;SDS011;9119;50.932;5.342;2023-04-09T14:41:03;13.27;;;8.07;;
17987;SDS011;9119;50.932;5.342;2023-04-09T14:43:28;11.83;;;7.03;;
17987;SDS011;9119;50.932;5.342;2023-04-09T14:45:54;15.60;;;9.07;;
17987;SDS011;9119;50.932;5.342;2023-04-09T14:48:20;12.47;;;7.27;;
17987;SDS011;9119;50.932;5.342;2023-04-09T14:50:46;11.93;;;7.40;;
17987;SDS011;9119;50.932;5.342;2023-04-09T14:53:12;12.60;;;7.53;;
17987;SDS011;9119;50.932;5.342;2023-04-09T14:55:38;11.97;;;7.17;;
17987;SDS011;9119;50.932;5.342;2023-04-09T14:58:04;14.57;;;8.50;;